.
WxDataArchive / Data Records for 2006-09-13
2006-09-12 September 2006 2006-09-14

Data Records for Wednesday, 13 September 2006

Time	Temp	Chill	HIndex	Humid	Dewpt	 Wind 	HiWind	WindDir	Rain 	Barom 
-----	----	-----	------	-----	-----	------	------	-------	-----	----- 
00:00	65.2	65.2	65.2	97	64.3	0	1	90	0.00	29.776 
00:05	65.3	65.3	65.3	97	64.4	0	1	90	0.00	29.776 
00:10	65.3	65.3	65.3	97	64.4	0	1	90	0.00	29.776 
00:15	65.5	65.5	65.5	97	64.6	0	0	---	0.00	29.775 
00:20	65.5	65.5	65.5	97	64.6	0	0	---	0.00	29.775 
00:25	65.6	65.6	65.6	97	64.7	0	1	90	0.00	29.775 
00:30	65.6	65.6	65.6	97	64.7	0	1	90	0.00	29.769 
00:35	65.8	65.8	65.8	97	64.9	0	1	90	0.01	29.769 
00:40	66.0	66.0	66.0	97	65.1	0	1	90	0.01	29.769 
00:45	66.1	66.1	66.1	97	65.2	1	5	90	0.11	29.761 
00:50	66.3	66.3	66.3	97	65.4	1	3	292	0.01	29.761 
00:55	66.3	66.3	66.3	97	65.4	0	2	292	0.00	29.761 
01:00	66.3	66.3	66.3	97	65.4	1	4	292	0.00	29.762 
01:05	66.3	66.3	66.3	97	65.4	0	2	112	0.00	29.762 
01:10	66.3	66.3	66.3	97	65.4	0	1	112	0.00	29.762 
01:15	66.1	66.1	66.1	97	65.2	0	1	112	0.00	29.766 
01:20	66.1	66.1	66.1	97	65.2	0	0	---	0.00	29.766 
01:25	66.1	66.1	66.1	97	65.2	0	1	112	0.00	29.766 
01:30	66.1	66.1	66.1	97	65.2	0	1	112	0.00	29.766 
01:35	66.1	66.1	66.1	97	65.2	0	1	112	0.00	29.766 
01:40	66.0	66.0	66.0	97	65.1	0	1	112	0.00	29.766 
01:45	66.0	66.0	66.0	97	65.1	0	1	112	0.00	29.764 
01:50	65.8	65.8	65.8	97	64.9	0	1	112	0.00	29.764 
01:55	65.8	65.8	65.8	97	64.9	0	1	112	0.00	29.764 
02:00	65.6	65.6	65.6	97	64.7	0	0	---	0.00	29.760 
02:05	65.5	65.5	65.5	97	64.6	0	0	---	0.00	29.760 
02:10	65.3	65.3	65.3	97	64.4	0	0	---	0.00	29.760 
02:15	65.3	65.3	65.3	97	64.4	0	1	112	0.00	29.757 
02:20	65.3	65.3	65.3	97	64.4	0	1	112	0.00	29.757 
02:25	65.3	65.3	65.3	97	64.4	0	1	112	0.00	29.757 
02:30	65.2	65.2	65.2	97	64.3	0	1	112	0.00	29.753 
02:35	65.2	65.2	65.2	97	64.3	0	1	112	0.00	29.753 
02:40	65.0	65.0	65.0	97	64.1	0	0	---	0.00	29.753 
02:45	64.8	64.8	64.8	97	63.9	0	0	---	0.00	29.750 
02:50	64.7	64.7	64.7	97	63.8	0	0	---	0.00	29.750 
02:55	64.3	64.3	64.3	97	63.4	0	0	---	0.00	29.750 
03:00	64.2	64.2	64.2	97	63.3	0	0	---	0.00	29.745 
03:05	64.2	64.2	64.2	97	63.3	0	0	---	0.00	29.745 
03:10	64.0	64.0	64.0	97	63.1	0	1	112	0.00	29.745 
03:15	64.0	64.0	64.0	97	63.1	0	1	112	0.00	29.745 
03:20	64.0	64.0	64.0	97	63.1	0	0	---	0.00	29.745 
03:25	64.0	64.0	64.0	97	63.1	0	0	---	0.00	29.745 
03:30	63.9	63.9	63.9	97	63.0	0	0	---	0.00	29.746 
03:35	63.9	63.9	63.9	97	63.0	0	0	---	0.00	29.746 
03:40	63.9	63.9	63.9	97	63.0	0	1	112	0.00	29.746 
03:45	63.9	63.9	63.9	97	63.0	0	1	112	0.00	29.743 
03:50	63.9	63.9	63.9	97	63.0	0	0	---	0.00	29.743 
03:55	63.7	63.7	63.7	97	62.8	0	0	---	0.00	29.743 
04:00	63.7	63.7	63.7	97	62.8	0	0	---	0.00	29.743 
04:05	63.9	63.9	63.9	97	63.0	0	1	112	0.00	29.743 
04:10	63.9	63.9	63.9	97	63.0	0	1	112	0.00	29.743 
04:15	63.7	63.7	63.7	97	62.8	0	0	---	0.00	29.746 
04:20	63.7	63.7	63.7	97	62.8	0	0	---	0.00	29.746 
04:25	63.7	63.7	63.7	97	62.8	0	0	---	0.00	29.746 
04:30	63.7	63.7	63.7	97	62.8	0	0	---	0.00	29.745 
04:35	63.7	63.7	63.7	98	63.1	0	0	---	0.00	29.745 
04:40	63.7	63.7	63.7	98	63.1	0	2	202	0.00	29.745 
04:45	63.7	63.7	63.7	98	63.1	0	1	202	0.00	29.743 
04:50	63.7	63.7	63.7	98	63.1	0	1	202	0.00	29.743 
04:55	63.9	63.9	63.9	98	63.3	0	1	202	0.00	29.743 
05:00	63.9	63.9	63.9	98	63.3	0	1	202	0.00	29.744 
05:05	63.9	63.9	63.9	98	63.3	0	1	202	0.00	29.744 
05:10	63.9	63.9	63.9	98	63.3	0	0	---	0.00	29.744 
05:15	63.9	63.9	63.9	98	63.3	0	0	---	0.00	29.745 
05:20	63.9	63.9	63.9	98	63.3	0	0	---	0.00	29.745 
05:25	63.9	63.9	63.9	98	63.3	0	0	---	0.00	29.745 
05:30	63.9	63.9	63.9	98	63.3	0	0	---	0.00	29.739 
05:35	63.9	63.9	63.9	98	63.3	0	0	---	0.00	29.739 
05:40	63.9	63.9	63.9	98	63.3	0	0	---	0.00	29.739 
05:45	63.9	63.9	63.9	98	63.3	0	0	---	0.00	29.743 
05:50	64.0	64.0	64.0	98	63.4	0	1	202	0.00	29.743 
05:55	64.0	64.0	64.0	98	63.4	0	2	202	0.00	29.743 
06:00	63.9	63.9	63.9	98	63.3	0	3	248	0.00	29.743 
06:05	63.7	63.7	63.7	98	63.1	0	2	248	0.00	29.743 
06:10	63.7	63.7	63.7	98	63.1	0	1	248	0.00	29.743 
06:15	63.7	63.7	63.7	98	63.1	0	2	248	0.00	29.746 
06:20	63.7	63.7	63.7	98	63.1	0	2	248	0.00	29.746 
06:25	63.7	63.7	63.7	98	63.1	0	1	248	0.00	29.746 
06:30	63.7	63.7	63.7	98	63.1	0	1	248	0.00	29.744 
06:35	63.7	63.7	63.7	98	63.1	0	1	248	0.00	29.744 
06:40	63.7	63.7	63.7	98	63.1	0	2	248	0.00	29.744 
06:45	63.7	63.7	63.7	98	63.1	1	3	248	0.01	29.742 
06:50	63.5	63.5	63.5	98	62.9	1	3	248	0.00	29.742 
06:55	63.5	63.5	63.5	98	62.9	0	2	248	0.00	29.742 
07:00	63.4	63.4	63.4	98	62.8	0	2	248	0.00	29.741 
07:05	63.4	63.4	63.4	98	62.8	0	1	248	0.00	29.741 
07:10	63.2	63.2	63.2	98	62.6	0	2	248	0.00	29.741 
07:15	63.2	63.2	63.2	98	62.6	1	2	248	0.00	29.746 
07:20	63.1	63.1	63.1	98	62.5	1	2	248	0.00	29.746 
07:25	62.9	62.9	62.9	98	62.3	1	3	248	0.00	29.746 
07:30	62.7	62.7	62.7	98	62.1	1	4	248	0.00	29.748 
07:35	62.6	62.6	62.6	97	61.7	1	3	248	0.00	29.748 
07:40	62.4	62.4	62.4	97	61.5	1	2	292	0.00	29.748 
07:45	62.3	62.3	62.3	97	61.4	1	2	292	0.00	29.751 
07:50	62.1	62.1	62.1	97	61.2	1	2	270	0.00	29.751 
07:55	62.0	62.0	62.0	97	61.1	1	3	248	0.00	29.751 
08:00	61.8	61.8	61.8	97	60.9	1	3	248	0.00	29.753 
08:05	61.6	61.6	61.6	97	60.7	1	2	248	0.00	29.753 
08:10	61.6	61.6	61.6	97	60.7	1	3	248	0.00	29.753 
08:15	61.6	61.6	61.6	97	60.7	1	2	248	0.00	29.758 
08:20	61.8	61.8	61.8	97	60.9	0	2	248	0.00	29.758 
08:25	62.0	62.0	62.0	97	61.1	0	1	248	0.00	29.758 
08:30	62.0	62.0	62.0	97	61.1	0	2	248	0.00	29.759 
08:35	62.0	62.0	62.0	97	61.1	0	1	90	0.00	29.759 
08:40	62.0	62.0	62.0	97	61.1	0	2	90	0.00	29.759 
08:45	62.1	62.1	62.1	97	61.2	0	2	90	0.00	29.762 
08:50	62.0	62.0	62.0	97	61.1	1	2	90	0.00	29.762 
08:55	61.8	61.8	61.8	97	60.9	1	2	90	0.00	29.762 
09:00	61.6	61.6	61.6	97	60.7	0	2	90	0.00	29.763 
09:05	61.5	61.5	61.5	97	60.6	1	2	90	0.00	29.763 
09:10	61.5	61.5	61.5	97	60.6	1	2	90	0.00	29.763 
09:15	61.5	61.5	61.5	97	60.6	1	2	90	0.00	29.761 
09:20	61.5	61.5	61.5	97	60.6	0	2	90	0.00	29.761 
09:25	61.3	61.3	61.3	97	60.4	1	3	90	0.00	29.761 
09:30	61.3	61.3	61.3	96	60.1	1	2	248	0.00	29.765 
09:35	61.3	61.3	61.3	96	60.1	0	2	248	0.00	29.765 
09:40	61.2	61.2	61.2	96	60.0	1	3	248	0.00	29.765 
09:45	61.2	61.2	61.2	96	60.0	0	3	248	0.00	29.766 
09:50	61.2	61.2	61.2	96	60.0	0	2	248	0.00	29.766 
09:55	61.2	61.2	61.2	96	60.0	1	4	248	0.00	29.766 
10:00	61.2	61.2	61.2	96	60.0	1	3	248	0.00	29.765 
10:05	61.2	61.2	61.2	96	60.0	1	3	248	0.00	29.765 
10:10	61.2	61.2	61.2	96	60.0	1	2	248	0.00	29.765 
10:15	61.2	61.2	61.2	96	60.0	1	4	248	0.00	29.767 
10:20	61.0	61.0	61.0	96	59.8	2	5	248	0.00	29.767 
10:25	61.0	61.0	61.0	96	59.8	1	3	270	0.00	29.767 
10:30	60.9	60.9	60.9	95	59.5	0	1	270	0.00	29.768 
10:35	60.9	60.9	60.9	95	59.5	0	2	270	0.00	29.768 
10:40	61.0	61.0	61.0	96	59.8	0	2	270	0.00	29.768 
10:45	61.0	61.0	61.0	96	59.8	1	2	270	0.00	29.768 
10:50	61.0	61.0	61.0	96	59.8	0	1	270	0.00	29.768 
10:55	61.0	61.0	61.0	96	59.8	0	2	270	0.00	29.768 
11:00	60.9	60.9	60.9	96	59.7	1	4	248	0.00	29.768 
11:05	60.9	60.9	60.9	96	59.7	0	3	248	0.00	29.768 
11:10	60.9	60.9	60.9	96	59.7	1	3	248	0.00	29.768 
11:15	60.9	60.9	60.9	96	59.7	1	3	248	0.00	29.768 
11:20	60.5	60.5	60.5	96	59.4	1	3	248	0.00	29.768 
11:25	60.5	60.5	60.5	96	59.4	1	3	248	0.00	29.768 
11:30	60.7	60.7	60.7	96	59.6	1	3	248	0.00	29.766 
11:35	61.0	61.0	61.0	96	59.8	1	3	248	0.00	29.766 
11:40	61.2	61.2	61.2	96	60.0	0	2	248	0.00	29.766 
11:45	61.2	61.2	61.2	96	60.0	1	4	248	0.00	29.765 
11:50	60.9	60.9	60.9	95	59.5	1	3	248	0.00	29.765 
11:55	60.9	60.9	60.9	95	59.5	1	3	248	0.00	29.765 
12:00	60.7	60.7	60.7	95	59.3	1	4	248	0.00	29.767 
12:05	60.7	60.7	60.7	95	59.3	1	2	248	0.00	29.767 
12:10	60.9	60.9	60.9	95	59.5	1	3	248	0.00	29.767 
12:15	60.7	60.7	60.7	94	59.0	1	3	248	0.00	29.767 
12:20	60.7	60.7	60.7	95	59.3	1	2	248	0.00	29.767 
12:25	60.9	60.9	60.9	95	59.5	1	2	248	0.00	29.767 
12:30	60.9	60.9	60.9	95	59.5	1	2	248	0.00	29.761 
12:35	61.0	61.0	61.0	95	59.6	1	3	248	0.00	29.761 
12:40	61.0	61.0	61.0	94	59.3	1	3	248	0.00	29.761 
12:45	60.9	60.9	60.9	93	58.9	2	6	248	0.00	29.757 
12:50	60.9	60.9	60.9	93	58.9	1	3	248	0.00	29.757 
12:55	61.2	61.2	61.2	94	59.5	1	3	248	0.00	29.757 
13:00	61.2	61.2	61.2	94	59.5	1	4	248	0.00	29.755 
13:05	61.3	61.3	61.3	94	59.6	1	3	248	0.00	29.755 
13:10	61.5	61.5	61.5	94	59.8	0	2	248	0.00	29.755 
13:15	61.6	61.6	61.6	93	59.6	1	3	248	0.00	29.751 
13:20	61.8	61.8	61.8	93	59.8	1	3	248	0.00	29.751 
13:25	61.8	61.8	61.8	92	59.4	1	3	248	0.00	29.751 
13:30	61.8	61.8	61.8	93	59.8	1	3	248	0.00	29.751 
13:35	62.0	62.0	62.0	92	59.6	1	3	248	0.00	29.751 
13:40	62.1	62.1	62.1	92	59.7	1	3	248	0.00	29.751 
13:45	62.1	62.1	62.1	92	59.7	1	2	248	0.00	29.752 
13:50	62.0	62.0	62.0	91	59.3	1	4	248	0.00	29.752 
13:55	61.6	61.6	61.6	91	58.9	2	4	248	0.00	29.752 
14:00	61.5	61.5	61.5	92	59.2	1	3	248	0.00	29.756 
14:05	61.5	61.5	61.5	92	59.2	1	3	248	0.00	29.756 
14:10	61.3	61.3	61.3	92	59.0	1	3	248	0.00	29.756 
14:15	61.3	61.3	61.3	92	59.0	1	3	248	0.00	29.764 
14:20	61.3	61.3	61.3	92	59.0	1	3	248	0.00	29.764 
14:25	61.3	61.3	61.3	93	59.3	0	3	270	0.00	29.764 
14:30	61.3	61.3	61.3	92	59.0	1	3	270	0.00	29.768 
14:35	61.3	61.3	61.3	92	59.0	1	3	248	0.00	29.768 
14:40	61.3	61.3	61.3	92	59.0	1	3	248	0.00	29.768 
14:45	61.3	61.3	61.3	92	59.0	1	3	248	0.00	29.761 
14:50	61.6	61.6	61.6	92	59.2	0	2	225	0.00	29.761 
14:55	61.6	61.6	61.6	92	59.2	0	3	225	0.00	29.761 
15:00	61.6	61.6	61.6	92	59.2	0	3	315	0.00	29.760 
15:05	61.6	61.6	61.6	92	59.2	0	2	292	0.00	29.760 
15:10	61.6	61.6	61.6	92	59.2	0	1	292	0.00	29.760 
15:15	61.8	61.8	61.8	91	59.1	0	2	292	0.00	29.755 
15:20	61.8	61.8	61.8	91	59.1	1	4	270	0.00	29.755 
15:25	61.8	61.8	61.8	91	59.1	1	4	248	0.00	29.755 
15:30	61.6	61.6	61.6	91	58.9	0	4	248	0.00	29.753 
15:35	61.6	61.6	61.6	91	58.9	1	4	248	0.00	29.753 
15:40	61.6	61.6	61.6	91	58.9	1	3	248	0.00	29.753 
15:45	61.8	61.8	61.8	91	59.1	0	2	248	0.00	29.752 
15:50	62.0	62.0	62.0	91	59.3	0	3	270	0.00	29.752 
15:55	62.1	62.1	62.1	90	59.1	1	4	270	0.00	29.752 
16:00	62.3	62.3	62.3	90	59.3	1	2	248	0.00	29.751 
16:05	62.4	62.4	62.4	89	59.1	1	3	248	0.00	29.751 
16:10	62.7	62.7	62.7	89	59.4	1	2	248	0.00	29.751 
16:15	63.1	63.1	63.1	89	59.8	1	3	248	0.00	29.747 
16:20	63.2	63.2	63.2	88	59.6	0	2	248	0.00	29.747 
16:25	63.2	63.2	63.2	88	59.6	1	3	248	0.00	29.747 
16:30	63.2	63.2	63.2	88	59.6	1	4	248	0.00	29.745 
16:35	63.2	63.2	63.2	88	59.6	1	3	248	0.00	29.745 
16:40	63.4	63.4	63.4	88	59.8	1	2	248	0.00	29.745 
16:45	63.4	63.4	63.4	88	59.8	0	3	248	0.00	29.741 
16:50	63.5	63.5	63.5	88	59.9	1	3	248	0.00	29.741 
16:55	63.5	63.5	63.5	88	59.9	0	2	248	0.00	29.741 
17:00	63.7	63.7	63.7	87	59.8	1	3	248	0.00	29.740 
17:05	63.7	63.7	63.7	87	59.8	1	2	248	0.00	29.740 
17:10	63.7	63.7	63.7	86	59.4	1	3	248	0.00	29.740 
17:15	63.7	63.7	63.7	87	59.8	0	2	225	0.00	29.739 
17:20	63.7	63.7	63.7	87	59.8	1	3	248	0.00	29.739 
17:25	63.7	63.7	63.7	87	59.8	1	2	248	0.00	29.739 
17:30	63.5	63.5	63.5	87	59.6	1	3	248	0.00	29.743 
17:35	63.5	63.5	63.5	87	59.6	1	3	248	0.00	29.743 
17:40	63.5	63.5	63.5	87	59.6	0	2	248	0.00	29.743 
17:45	63.5	63.5	63.5	88	59.9	0	2	248	0.00	29.748 
17:50	63.5	63.5	63.5	88	59.9	0	1	248	0.00	29.748 
17:55	63.5	63.5	63.5	88	59.9	0	2	248	0.00	29.748 
18:00	63.5	63.5	63.5	88	59.9	0	3	248	0.00	29.749 
18:05	63.7	63.7	63.7	88	60.1	0	1	248	0.00	29.749 
18:10	63.7	63.7	63.7	88	60.1	0	2	248	0.00	29.749 
18:15	63.9	63.9	63.9	88	60.3	0	2	248	0.00	29.751 
18:20	63.9	63.9	63.9	88	60.3	0	1	248	0.00	29.751 
18:25	64.0	64.0	64.0	88	60.4	0	1	248	0.00	29.751 
18:30	64.0	64.0	64.0	87	60.0	0	0	---	0.00	29.755 
18:35	64.0	64.0	64.0	88	60.4	0	1	248	0.00	29.755 
18:40	64.0	64.0	64.0	88	60.4	0	0	---	0.00	29.755 
18:45	64.0	64.0	64.0	88	60.4	0	2	248	0.00	29.754 
18:50	64.0	64.0	64.0	88	60.4	0	1	248	0.00	29.754 
18:55	64.0	64.0	64.0	88	60.4	0	1	248	0.00	29.754 
19:00	64.0	64.0	64.0	87	60.0	0	0	---	0.00	29.752 
19:05	64.0	64.0	64.0	88	60.4	0	0	---	0.00	29.752 
19:10	64.0	64.0	64.0	88	60.4	0	1	248	0.00	29.752 
19:15	64.0	64.0	64.0	88	60.4	0	1	248	0.00	29.753 
19:20	64.0	64.0	64.0	88	60.4	0	0	---	0.00	29.753 
19:25	64.0	64.0	64.0	88	60.4	0	1	248	0.00	29.753 
19:30	64.0	64.0	64.0	89	60.7	0	1	248	0.00	29.753 
19:35	64.0	64.0	64.0	89	60.7	0	2	248	0.00	29.753 
19:40	63.9	63.9	63.9	89	60.6	0	0	---	0.00	29.753 
19:45	63.9	63.9	63.9	89	60.6	0	0	---	0.00	29.753 
19:50	63.9	63.9	63.9	89	60.6	0	1	248	0.00	29.753 
19:55	63.9	63.9	63.9	89	60.6	0	1	248	0.00	29.753 
20:00	63.9	63.9	63.9	89	60.6	0	0	---	0.00	29.760 
20:05	63.9	63.9	63.9	89	60.6	0	0	---	0.00	29.760 
20:10	63.9	63.9	63.9	89	60.6	0	1	248	0.00	29.760 
20:15	63.7	63.7	63.7	89	60.4	0	1	248	0.00	29.763 
20:20	63.7	63.7	63.7	89	60.4	0	1	248	0.00	29.763 
20:25	63.7	63.7	63.7	90	60.7	0	1	248	0.00	29.763 
20:30	63.7	63.7	63.7	90	60.7	0	1	248	0.00	29.763 
20:35	63.7	63.7	63.7	90	60.7	0	1	248	0.00	29.763 
20:40	63.7	63.7	63.7	90	60.7	0	1	248	0.00	29.763 
20:45	63.7	63.7	63.7	90	60.7	0	1	248	0.00	29.766 
20:50	63.7	63.7	63.7	91	61.0	0	1	248	0.00	29.766 
20:55	63.7	63.7	63.7	91	61.0	0	0	---	0.00	29.766 
21:00	63.7	63.7	63.7	91	61.0	0	1	248	0.00	29.767 
21:05	63.7	63.7	63.7	91	61.0	0	1	248	0.00	29.767 
21:10	63.7	63.7	63.7	91	61.0	0	0	---	0.00	29.767 
21:15	63.7	63.7	63.7	91	61.0	0	1	248	0.00	29.769 
21:20	63.7	63.7	63.7	91	61.0	0	1	248	0.00	29.769 
21:25	63.5	63.5	63.5	91	60.8	0	1	248	0.00	29.769 
21:30	63.5	63.5	63.5	92	61.1	0	0	---	0.00	29.769 
21:35	63.4	63.4	63.4	92	61.0	0	0	---	0.00	29.769 
21:40	63.2	63.2	63.2	92	60.8	0	0	---	0.00	29.769 
21:45	63.2	63.2	63.2	92	60.8	0	0	---	0.00	29.770 
21:50	63.1	63.1	63.1	92	60.7	0	0	---	0.00	29.770 
21:55	63.1	63.1	63.1	92	60.7	0	0	---	0.00	29.770 
22:00	62.9	62.9	62.9	93	60.8	0	0	---	0.00	29.771 
22:05	62.9	62.9	62.9	93	60.8	0	0	---	0.00	29.771 
22:10	62.9	62.9	62.9	93	60.8	0	0	---	0.00	29.771 
22:15	62.9	62.9	62.9	93	60.8	0	0	---	0.00	29.782 
22:20	62.9	62.9	62.9	94	61.1	0	0	---	0.00	29.782 
22:25	63.2	63.2	63.2	94	61.4	0	0	---	0.00	29.782 
22:30	63.2	63.2	63.2	94	61.4	0	1	248	0.00	29.785 
22:35	63.4	63.4	63.4	94	61.6	0	0	---	0.00	29.785 
22:40	63.4	63.4	63.4	94	61.6	0	0	---	0.00	29.785 
22:45	63.4	63.4	63.4	94	61.6	0	1	248	0.00	29.784 
22:50	63.5	63.5	63.5	94	61.7	0	0	---	0.00	29.784 
22:55	63.5	63.5	63.5	94	61.7	0	1	248	0.00	29.784 
23:00	63.7	63.7	63.7	94	61.9	0	0	---	0.00	29.787 
23:05	63.7	63.7	63.7	94	61.9	0	0	---	0.00	29.787 
23:10	63.7	63.7	63.7	94	61.9	0	1	248	0.00	29.787 
23:15	63.7	63.7	63.7	94	61.9	0	1	248	0.00	29.793 
23:20	63.9	63.9	63.9	93	61.8	0	1	248	0.00	29.793 
23:25	63.9	63.9	63.9	93	61.8	0	1	248	0.00	29.793 
23:30	63.9	63.9	63.9	93	61.8	0	1	248	0.00	29.797 
23:35	63.9	63.9	63.9	93	61.8	0	2	248	0.00	29.797 
23:40	64.0	64.0	64.0	92	61.6	0	2	248	0.00	29.797 
23:45	64.0	64.0	64.0	92	61.6	0	1	248	0.00	29.800 
23:50	64.0	64.0	64.0	92	61.6	0	1	248	0.00	29.800 
23:55	64.0	64.0	64.0	92	61.6	0	1	248	0.00	29.800 

CoCoRaHS
IN-AL-39
A2 Web Hosting
Creative Commons License
GoDaddy
Look for:

loaded 2017-10-19 12:36:44 • last modified 2010-11-18 10:43:29
Privacy PolicyDisclaimer
• wx.awcolley.com is powered by PmWiki v.2002016 •
• all content (unless otherwise noted) © 2017 A W Colley